Connellsville, PA

2:43 PM EDT on September 01, 2014 (GMT -0400)
Parkview Terrace | Change Station
CLOSE
Current Station
Personal Weather Station
Location: Mt Pleasant, PA
Elevation: 1138 ft
Nearby Weather Stations

Elev 1138 ft 40.14 °N, 79.54 °W | Updated 11 minutes ago

Mostly Cloudy
Mostly Cloudy
81.3 °F
Feels Like 87 °F
N
4.2
Wind Variable Wind from SSE

Today
High -- | Low -- °F
--% Chance of Precip.
Yesterday
High -- | Low -- °F
Precip. -- in
6:46 AM 7:49 PM
Waxing Crescent, 43% visible
Pressure 30.04 in
Visibility 10.0 miles
Clouds Few 1800 ft
Mostly Cloudy 2300 ft
Mostly Cloudy 6000 ft
Heat Index 87 °F
Dew Point 74 °F
Humidity 80%
Rainfall 0.09 in
Snow Depth Not available.
UV 5 out of 12
Pollen 9.20 out of 12
Air Quality Not available.
Flu Activity Not available.
METAR KLBE 011745Z 23010KT 10SM FEW018 BKN023 BKN060 26/23 A3004

More Conditions Fewer Conditions

Pressure 30.04 in
Visibility 10.0 miles
Clouds Few 1800 ft
Mostly Cloudy 2300 ft
Mostly Cloudy 6000 ft
Heat Index 87 °F
Dew Point 74 °F
Humidity 80%
Rainfall 0.09 in
Snow Depth Not available.
UV 5 out of 12
Pollen 9.20 out of 12
Air Quality Not available.
Flu Activity Not available.
METAR KLBE 011745Z 23010KT 10SM FEW018 BKN023 BKN060 26/23 A3004

More Conditions Fewer Conditions

10-Day Weather Forecast

Almanac

Astronomy

Sep. 01, 2014 Rise Set
Actual Time 6:46 AM EDT 7:49 PM EDT
Civil Twilight 6:18 AM EDT 8:17 PM EDT
Nautical Twilight 5:45 AM EDT 8:50 PM EDT
Astronomical Twilight 5:10 AM EDT 9:25 PM EDT
Moon 1:30 PM EDT 11:49 PM EDT
Length of Visible Light 13h 59m
Length of Day
13h 03m
Tomorrow will be 2m 32s shorter.
Waxing Crescent, 43% of the Moon is Illuminated
Today
Waxing Crescent
Sep 2
First Quarter
Sep 8
Full
Sep 15
Last Quarter
Sep 24
New

Today's Extremes

State Highs State Lows

Community

WunderPhotos

Upload Photos

1,749,359 photos uploaded!

Nearby

Snow Depth

Station Depth Elevation
No new snow has been reported.

Earthquake Activity

City Distance Mag. Time & Date
No recent earthquake activity has been reported nearby.
Minimum magnitude displayed is 2.5.

Coastal Water Temperatures

Place Temperature
No Stations Reporting

Nearby Weather Stations